• Join FlightAware (Why Join?)
  • Login
  • US Flag 
04:36PM EDT


 

Airport Tracker/Info


-or-


 

Live Flight TrackerFlight Track Log ✈ JBU296 ✈ 20-Apr-2013 ✈ KLGB - KSEA

Flight Track Log - Related Links

Times and Time Zones

All times are in EDT time to prevent confusion due to time zone crossing. See the JBU296 flight status page for this flight to view local times or setup timezone preferences in your user account.

Time Position Orientation Groundspeed Altitude Reporting Facility
EDT Latitude Longitude Course Direction KTS MPH feet Rate Location/Type
09:09PM 33.8500 -118.2167 348° North 197 227 2,500  Level Southern California TRACON
09:10PM 33.8667 -118.2833 287° West 245 282 4,700 2,460 Climbing Southern California TRACON
09:11PM 33.9585 -118.4441 340° North  Level FlightAware Approximate
09:11PM 33.8797 -118.3492 283° West 237 273 7,300  Level Los Angeles Center
09:12PM 34.0545 -118.4878 320° Northwest  Level FlightAware Approximate
09:12PM 33.8936 -118.4314 282° West 251 289 9,700  Level Los Angeles Center
09:13PM 34.1485 -118.5277 335° Northwest  Level FlightAware Approximate
09:13PM 33.9744 -118.4844 331° Northwest 296 341 12,500  Level Los Angeles Center
09:14PM 34.2443 -118.5861 348° North  Level FlightAware Approximate
09:14PM 34.0511 -118.5214 338° Northwest 295 339 14,300  Level Los Angeles Center
09:15PM 34.1267 -118.5561 339° North 331 381 15,300 1,740 Climbing Los Angeles Center
09:16PM 34.2403 -118.6083 339° North 361 415 17,900 2,220 Climbing Los Angeles Center
09:17PM 34.3389 -118.6514 340° North 374 430 19,900 1,860 Climbing Los Angeles Center
09:18PM 34.4408 -118.6969 340° North 389 448 21,800 1,680 Climbing Los Angeles Center
09:19PM 34.5431 -118.7422 340° North 391 450 23,400 1,440 Climbing Los Angeles Center
09:20PM 34.6467 -118.7928 338° Northwest 398 458 24,800 1,260 Climbing Los Angeles Center
09:21PM 34.7561 -118.8411 340° North 416 479 26,100 1,260 Climbing Los Angeles Center
09:22PM 34.8669 -118.8903 340° North 423 487 27,500 1,500 Climbing Los Angeles Center
09:23PM 34.9919 -118.9336 344° North 425 489 29,200 1,320 Climbing Los Angeles Center
09:24PM 35.1058 -118.9792 342° North 430 495 30,300 1,200 Climbing Los Angeles Center
09:25PM 35.2211 -119.0231 343° North 435 501 31,700 1,320 Climbing Los Angeles Center
09:26PM 35.3381 -119.0661 343° North 438 504 33,100 1,260 Climbing Los Angeles Center
09:27PM 35.4500 -119.1106 342° North 431 496 34,400 1,200 Climbing Los Angeles Center
09:28PM 35.5842 -119.1636 342° North 425 489 35,600 840 Climbing Los Angeles Center
09:29PM 35.6478 -119.1886 342° North 425 489 35,900 180 Climbing Oakland Center
09:30PM 35.7589 -119.2322 342° North 423 487 36,000  Climbing Oakland Center
09:31PM 35.8969 -119.2881 342° North 433 498 36,000  Level Oakland Center
09:32PM 36.0114 -119.3328 342° North 434 499 36,000  Level Oakland Center
09:33PM 36.1247 -119.3778 342° North 429 494 36,000 -60 Level Oakland Center
09:34PM 36.2381 -119.4225 342° North 428 493 35,900  Descending Oakland Center
09:35PM 36.3500 -119.4678 342° North 426 490 36,000  Climbing Oakland Center
09:36PM 36.4619 -119.5122 342° North 421 484 36,000  Level Oakland Center
09:37PM 36.5731 -119.5564 342° North 420 483 36,000 -60 Level Oakland Center
09:38PM 36.6822 -119.6000 342° North 414 476 35,900  Descending Oakland Center
09:39PM 36.7908 -119.6453 342° North 412 474 36,000  Climbing Oakland Center
09:40PM 36.9019 -119.6919 341° North 421 484 36,000  Level Oakland Center
09:41PM 37.0317 -119.7458 342° North 408 470 36,000  Level Oakland Center
09:42PM 37.1417 -119.7914 342° North 416 479 36,000  Level Oakland Center
09:43PM 37.2442 -119.8325 342° North 407 468 36,000  Level Oakland Center
09:44PM 37.3533 -119.8789 341° North 412 474 36,000  Level Oakland Center
09:45PM 37.4614 -119.9225 342° North 409 471 36,000  Level Oakland Center
09:46PM 37.5719 -119.9600 345° North 411 473 36,000  Level Oakland Center
09:47PM 37.6797 -120.0006 343° North 423 487 36,000  Level Oakland Center
09:48PM 37.7839 -120.0542 338° Northwest 407 468 36,000  Level Oakland Center
09:49PM 37.8928 -120.0978 342° North 409 471 36,000  Level Oakland Center
09:50PM 38.0294 -120.1392 347° North 418 481 36,000  Level Oakland Center
09:51PM 38.1386 -120.1731 346° North 411 473 36,000  Level Oakland Center
09:52PM 38.2494 -120.2072 346° North 411 473 36,000  Level Oakland Center
09:53PM 38.3592 -120.2428 346° North 409 471 36,000  Level Oakland Center
09:54PM 38.4697 -120.2769 346° North 411 473 36,000  Level Oakland Center
09:55PM 38.5806 -120.3111 346° North 411 473 36,000  Level Oakland Center
09:56PM 38.6908 -120.3458 346° North 410 472 36,000  Level Oakland Center
09:57PM 38.8014 -120.3800 346° North 412 474 36,000  Level Oakland Center
09:58PM 38.9097 -120.4144 346° North 406 467 36,000  Level Oakland Center
09:59PM 39.0186 -120.4489 346° North 405 466 36,000  Level Oakland Center
10:00PM 39.1503 -120.4914 346° North 406 467 36,000  Level Oakland Center
10:01PM 39.2592 -120.5250 347° North 406 467 36,000  Level Oakland Center
10:02PM 39.3692 -120.5606 346° North 408 470 36,000  Level Oakland Center
10:03PM 39.4800 -120.5961 346° North 410 472 36,000  Level Oakland Center
10:04PM 39.5911 -120.6322 346° North 413 475 36,000  Level Oakland Center
10:05PM 39.7025 -120.6669 347° North 414 476 36,000  Level Oakland Center
10:06PM 39.8131 -120.7022 346° North 411 473 36,000  Level Oakland Center
10:07PM 39.9236 -120.7397 345° North 411 473 36,000  Level Oakland Center
10:09PM 40.0469 -120.7783 347° North 411 473 36,000  Level Oakland Center
10:10PM 40.1589 -120.8142 346° North 416 479 36,000  Level Oakland Center
10:11PM 40.2694 -120.8514 346° North 415 478 36,000  Level Oakland Center
10:12PM 40.3825 -120.8839 348° North 417 480 36,000  Level Oakland Center
10:13PM 40.4958 -120.9172 347° North 418 481 36,000  Level Oakland Center
10:14PM 40.6106 -120.9556 346° North 423 487 36,000  Level Oakland Center
10:15PM 40.7239 -120.9847 349° North 415 478 36,000  Level Oakland Center
10:16PM 40.8361 -121.0172 348° North 412 474 36,000  Level Oakland Center
10:17PM 40.9489 -121.0500 348° North 416 479 36,000  Level Oakland Center
10:18PM 41.0597 -121.0833 347° North 410 472 36,000  Level Oakland Center
10:19PM 41.1711 -121.1181 347° North 412 474 36,000  Level Oakland Center
10:20PM 41.2800 -121.1497 348° North 405 466 36,000  Level Oakland Center
10:21PM 41.3897 -121.1850 346° North 406 467 36,000  Level Oakland Center
10:22PM 41.5231 -121.2242 348° North 409 471 36,000  Level Oakland Center
10:23PM 41.6336 -121.2569 348° North 408 470 36,000  Level Oakland Center
10:24PM 41.7431 -121.2900 347° North 407 468 36,000  Level Oakland Center
10:25PM 41.8519 -121.3242 347° North 404 465 36,000  Level Oakland Center
10:26PM 41.9611 -121.3575 347° North 404 465 36,000  Level Oakland Center
10:27PM 42.0700 -121.3900 348° North 406 467 36,000  Level Oakland Center
10:28PM 42.1992 -121.4303 347° North 401 461 36,000  Level Seattle Center
10:29PM 42.3078 -121.4647 347° North 403 464 36,000  Level Seattle Center
10:30PM 42.4153 -121.4958 348° North 400 460 36,000  Level Seattle Center
10:31PM 42.5244 -121.5306 347° North 404 465 36,000  Level Seattle Center
10:32PM 42.6314 -121.5636 347° North 398 458 36,000  Level Seattle Center
10:33PM 42.7381 -121.5972 347° North 395 455 36,000  Level Seattle Center
10:34PM 42.8453 -121.6319 347° North 395 455 36,000  Level Seattle Center
10:35PM 42.9528 -121.6647 347° North 397 457 36,000  Level Seattle Center
10:36PM 43.0592 -121.7011 346° North 397 457 36,000  Level Seattle Center
10:37PM 43.1653 -121.7344 347° North 393 452 36,000  Level Seattle Center
10:38PM 43.2719 -121.7678 347° North 392 451 36,000  Level Seattle Center
10:39PM 43.3775 -121.8025 347° North 391 450 36,000  Level Seattle Center
10:40PM 43.4844 -121.8369 347° North 393 452 36,000  Level Seattle Center
10:41PM 43.5906 -121.8703 347° North 391 450 36,000  Level Seattle Center
10:42PM 43.7003 -121.9022 348° North 389 448 36,000  Level Seattle Center
10:43PM 43.8044 -121.9353 347° North 382 440 36,000  Level Seattle Center
10:44PM 43.9061 -121.9683 347° North 377 434 36,000  Level Seattle Center
10:45PM 44.0275 -122.0097 346° North 374 430 36,000  Level Seattle Center
10:46PM 44.1278 -122.0414 347° North 371 427 36,000  Level Seattle Center
10:47PM 44.2283 -122.0744 347° North 371 427 36,000  Level Seattle Center
10:48PM 44.3294 -122.1081 347° North 373 429 36,000  Level Seattle Center
10:49PM 44.4294 -122.1419 346° North 370 426 36,000  Level Seattle Center
10:50PM 44.5289 -122.1744 347° North 368 423 36,000  Level Seattle Center
10:51PM 44.6322 -122.2092 347° North 378 435 36,000  Level Seattle Center
10:52PM 44.7344 -122.2444 346° North 379 436 36,000  Level Seattle Center
10:53PM 44.8361 -122.2792 346° North 377 434 36,000  Level Seattle Center
10:54PM 44.9406 -122.3147 346° North 382 440 36,000  Level Seattle Center
10:55PM 45.0411 -122.3483 347° North 378 435 36,000  Level Seattle Center
10:56PM 45.1411 -122.3842 346° North 374 430 36,000  Level Seattle Center
10:57PM 45.2386 -122.4161 347° North 366 421 36,000  Level Seattle Center
10:58PM 45.3369 -122.4489 347° North 365 420 36,000  Level Seattle Center
10:59PM 45.4369 -122.4839 346° North 369 425 36,000  Level Seattle Center
11:00PM 45.5369 -122.5183 346° North 370 426 36,000  Level Seattle Center
11:01PM 45.6386 -122.5525 347° North 374 430 36,000 -180 Level Seattle Center
11:02PM 45.7392 -122.5878 346° North 374 430 35,700 -780 Descending Seattle Center
11:03PM 45.8633 -122.6200 350° North 378 435 34,500 -1,380 Descending Seattle Center
11:04PM 45.9700 -122.6453 351° North 387 445 32,900 -2,040 Descending Seattle Center
11:05PM 46.0806 -122.6761 349° North 396 456 30,500 -2,340 Descending Seattle Center
11:06PM 46.1839 -122.6997 351° North 388 447 28,300 -2,220 Descending Seattle Center
11:07PM 46.2881 -122.7181 353° North 376 433 26,100 -2,040 Descending Seattle Center
11:08PM 46.3872 -122.7275 356° North 365 420 24,200 -1,920 Descending Seattle Center
11:09PM 46.4858 -122.7189 North 361 415 22,200 -1,980 Descending Seattle Center
11:10PM 46.5811 -122.7150 North 349 402 20,300 -1,920 Descending Seattle Center
11:11PM 46.6486 -122.7114 North 341 392 19,000 -1,800 Descending Seattle Center
11:11PM 46.6742 -122.7131 357° North 341 392 18,500 -1,680 Descending Seattle Center
11:12PM 46.7667 -122.7067 North 337 388 16,800 -1,380 Descending Seattle Center
11:13PM 46.8511 -122.6633 19° North 346 398 15,800 -1,200 Descending Seattle Center
11:14PM 46.9242 -122.5794 38° Northeast 340 391 14,500 -1,440 Descending Seattle Center
11:15PM 47.0064 -122.5325 21° North 321 369 13,000 -1,500 Descending Seattle Center
11:17PM 47.1108 -122.4944 14° North 292 336 11,200 -1,440 Descending Seattle Center
11:17PM 47.1806 -122.4825 North 288 331 10,100 -1,140 Descending Seattle Center
11:18PM 47.2550 -122.4706 North 274 315 9,200 -780 Descending Seattle Center
11:19PM 47.2750 -122.4669 North 264 304 9,100 -720 Descending Seattle Center
11:19PM 47.3217 -122.4603 North 246 283 8,500 -900 Descending Seattle Center
11:20PM 47.3411 -122.4569 North 236 272 8,200 -900 Descending Seattle Center
11:20PM 47.3867 -122.4556 North 238 274 7,600 -1,020 Descending Seattle Center
11:21PM 47.4078 -122.4564 358° North 229 264 7,200 -1,200 Descending Seattle Center
11:21PM 47.4500 -122.4558 North 231 266 6,400 -1,200 Descending Seattle Center
11:22PM 47.4722 -122.4569 358° North 230 265 6,000 -1,200 Descending Seattle Center
11:22PM 47.5142 -122.4556 North 232 267 5,200 -1,140 Descending Seattle Center
11:23PM 47.5361 -122.4547 North 233 268 4,900 -900 Descending Seattle Center
11:23PM 47.5800 -122.4539 North 226 260 4,300 -780 Descending Seattle Center
11:24PM 47.6111 -122.3800 58° Northeast 231 266 3,600 -960 Descending Seattle Center
11:25PM 47.6122 -122.3506 87° East 226 260 3,100 -1,200 Descending Seattle Center
11:25PM 47.5839 -122.3114 137° Southeast 221 254 2,400 -900 Descending Seattle Center
11:26PM 47.5689 -122.3119 181° South 194 223 2,200 -420 Descending Seattle Center
11:26PM 47.5375 -122.3108 179° South 169 194 2,000 -540 Descending Seattle Center
11:27PM 47.5242 -122.3106 179° South 147 169 1,700 -840 Descending Seattle Center
11:27PM 47.4989 -122.3103 180° South 143 165 1,200 -720 Descending Seattle Center
11:28PM 47.4892 -122.3133 192° South 118 136 1,000 -600 Descending Seattle Center
11:29PM 47.4661 -122.3117 177° South 122 140 600 -360 Descending Seattle Center
11:30PM 47.4381 -122.3128 182° South 121 139 400 -240 Descending Seattle Center